sensor_id;sensor_type;location;lat;lon;timestamp;P1;P2;P0
64229;PMS5003;50547;49.498;0.092;2023-04-03T00:00:04;7;7;
64229;PMS5003;50547;49.498;0.092;2023-04-03T00:02:34;8;8;
64229;PMS5003;50547;49.498;0.092;2023-04-03T00:05:03;8;8;
64229;PMS5003;50547;49.498;0.092;2023-04-03T00:07:33;10;10;
64229;PMS5003;50547;49.498;0.092;2023-04-03T00:10:02;8;8;
64229;PMS5003;50547;49.498;0.092;2023-04-03T00:12:32;8;8;
64229;PMS5003;50547;49.498;0.092;2023-04-03T00:15:01;10;10;
64229;PMS5003;50547;49.498;0.092;2023-04-03T00:17:30;8;8;
64229;PMS5003;50547;49.498;0.092;2023-04-03T00:19:59;10;10;
64229;PMS5003;50547;49.498;0.092;2023-04-03T00:22:28;8;8;
64229;PMS5003;50547;49.498;0.092;2023-04-03T00:24:57;9;9;
64229;PMS5003;50547;49.498;0.092;2023-04-03T00:27:26;10;10;
64229;PMS5003;50547;49.498;0.092;2023-04-03T00:29:56;10;10;
64229;PMS5003;50547;49.498;0.092;2023-04-03T00:32:25;10;10;
64229;PMS5003;50547;49.498;0.092;2023-04-03T00:34:54;10;10;
64229;PMS5003;50547;49.498;0.092;2023-04-03T00:37:23;10;10;
64229;PMS5003;50547;49.498;0.092;2023-04-03T00:39:52;10;10;
64229;PMS5003;50547;49.498;0.092;2023-04-03T00:42:22;10;10;
64229;PMS5003;50547;49.498;0.092;2023-04-03T00:45:25;10;10;
64229;PMS5003;50547;49.498;0.092;2023-04-03T00:47:57;10;10;
64229;PMS5003;50547;49.498;0.092;2023-04-03T00:50:28;10;10;
64229;PMS5003;50547;49.498;0.092;2023-04-03T00:52:58;10;10;
64229;PMS5003;50547;49.498;0.092;2023-04-03T00:55:28;10;10;
64229;PMS5003;50547;49.498;0.092;2023-04-03T00:57:58;10;10;
64229;PMS5003;50547;49.498;0.092;2023-04-03T01:00:29;11;11;
64229;PMS5003;50547;49.498;0.092;2023-04-03T01:02:58;11;11;
64229;PMS5003;50547;49.498;0.092;2023-04-03T01:05:28;11;11;
64229;PMS5003;50547;49.498;0.092;2023-04-03T01:07:57;11;11;
64229;PMS5003;50547;49.498;0.092;2023-04-03T01:10:26;11;11;
64229;PMS5003;50547;49.498;0.092;2023-04-03T01:12:55;11;11;
64229;PMS5003;50547;49.498;0.092;2023-04-03T01:15:25;11;11;
64229;PMS5003;50547;49.498;0.092;2023-04-03T01:17:56;11;11;
64229;PMS5003;50547;49.498;0.092;2023-04-03T01:20:49;11;11;
64229;PMS5003;50547;49.498;0.092;2023-04-03T01:23:38;13;13;
64229;PMS5003;50547;49.498;0.092;2023-04-03T01:26:17;11;11;
64229;PMS5003;50547;49.498;0.092;2023-04-03T01:28:46;11;11;
64229;PMS5003;50547;49.498;0.092;2023-04-03T01:31:18;14;14;
64229;PMS5003;50547;49.498;0.092;2023-04-03T01:33:52;14;14;
64229;PMS5003;50547;49.498;0.092;2023-04-03T01:36:22;14;14;
64229;PMS5003;50547;49.498;0.092;2023-04-03T01:38:53;14;14;
64229;PMS5003;50547;49.498;0.092;2023-04-03T01:41:23;14;14;
64229;PMS5003;50547;49.498;0.092;2023-04-03T01:43:52;14;14;
64229;PMS5003;50547;49.498;0.092;2023-04-03T01:46:22;14;14;
64229;PMS5003;50547;49.498;0.092;2023-04-03T01:48:51;15;14;
64229;PMS5003;50547;49.498;0.092;2023-04-03T01:51:20;18;16;
64229;PMS5003;50547;49.498;0.092;2023-04-03T01:53:50;15;14;
64229;PMS5003;50547;49.498;0.092;2023-04-03T01:56:19;14;14;
64229;PMS5003;50547;49.498;0.092;2023-04-03T01:58:48;18;16;
64229;PMS5003;50547;49.498;0.092;2023-04-03T02:01:17;18;16;
64229;PMS5003;50547;49.498;0.092;2023-04-03T02:03:46;18;16;
64229;PMS5003;50547;49.498;0.092;2023-04-03T02:06:15;20;17;
64229;PMS5003;50547;49.498;0.092;2023-04-03T02:08:45;20;17;
64229;PMS5003;50547;49.498;0.092;2023-04-03T02:11:14;20;17;
64229;PMS5003;50547;49.498;0.092;2023-04-03T02:13:43;20;17;
64229;PMS5003;50547;49.498;0.092;2023-04-03T02:16:12;21;18;
64229;PMS5003;50547;49.498;0.092;2023-04-03T02:18:41;21;18;
64229;PMS5003;50547;49.498;0.092;2023-04-03T02:21:10;22;19;
64229;PMS5003;50547;49.498;0.092;2023-04-03T02:23:39;22;19;
64229;PMS5003;50547;49.498;0.092;2023-04-03T02:26:09;22;19;
64229;PMS5003;50547;49.498;0.092;2023-04-03T02:28:40;23;20;
64229;PMS5003;50547;49.498;0.092;2023-04-03T02:31:10;23;20;
64229;PMS5003;50547;49.498;0.092;2023-04-03T02:33:39;23;20;
64229;PMS5003;50547;49.498;0.092;2023-04-03T02:36:09;23;20;
64229;PMS5003;50547;49.498;0.092;2023-04-03T02:38:38;23;20;
64229;PMS5003;50547;49.498;0.092;2023-04-03T02:41:08;23;20;
64229;PMS5003;50547;49.498;0.092;2023-04-03T02:43:39;24;21;
64229;PMS5003;50547;49.498;0.092;2023-04-03T02:46:08;24;21;
64229;PMS5003;50547;49.498;0.092;2023-04-03T02:48:37;24;21;
64229;PMS5003;50547;49.498;0.092;2023-04-03T02:51:06;24;21;
64229;PMS5003;50547;49.498;0.092;2023-04-03T02:53:35;25;22;
64229;PMS5003;50547;49.498;0.092;2023-04-03T02:56:05;25;22;
64229;PMS5003;50547;49.498;0.092;2023-04-03T02:58:34;25;22;
64229;PMS5003;50547;49.498;0.092;2023-04-03T03:01:04;25;22;
64229;PMS5003;50547;49.498;0.092;2023-04-03T03:03:33;26;23;
64229;PMS5003;50547;49.498;0.092;2023-04-03T03:06:03;26;23;
64229;PMS5003;50547;49.498;0.092;2023-04-03T03:08:34;27;23;
64229;PMS5003;50547;49.498;0.092;2023-04-03T03:11:04;26;23;
64229;PMS5003;50547;49.498;0.092;2023-04-03T03:13:34;28;24;
64229;PMS5003;50547;49.498;0.092;2023-04-03T03:16:03;29;25;
64229;PMS5003;50547;49.498;0.092;2023-04-03T03:18:33;28;24;
64229;PMS5003;50547;49.498;0.092;2023-04-03T03:21:03;28;24;
64229;PMS5003;50547;49.498;0.092;2023-04-03T03:23:33;28;24;
64229;PMS5003;50547;49.498;0.092;2023-04-03T03:26:03;28;24;
64229;PMS5003;50547;49.498;0.092;2023-04-03T03:28:34;29;25;
64229;PMS5003;50547;49.498;0.092;2023-04-03T03:31:04;29;25;
64229;PMS5003;50547;49.498;0.092;2023-04-03T03:33:33;30;26;
64229;PMS5003;50547;49.498;0.092;2023-04-03T03:36:03;29;25;
64229;PMS5003;50547;49.498;0.092;2023-04-03T03:38:32;29;25;
64229;PMS5003;50547;49.498;0.092;2023-04-03T03:41:01;30;26;
64229;PMS5003;50547;49.498;0.092;2023-04-03T03:43:31;30;26;
64229;PMS5003;50547;49.498;0.092;2023-04-03T03:46:00;30;26;
64229;PMS5003;50547;49.498;0.092;2023-04-03T03:48:29;30;26;
64229;PMS5003;50547;49.498;0.092;2023-04-03T03:50:58;29;25;
64229;PMS5003;50547;49.498;0.092;2023-04-03T03:53:27;30;26;
64229;PMS5003;50547;49.498;0.092;2023-04-03T03:55:56;30;26;
64229;PMS5003;50547;49.498;0.092;2023-04-03T03:58:26;30;26;
64229;PMS5003;50547;49.498;0.092;2023-04-03T04:00:55;31;27;
64229;PMS5003;50547;49.498;0.092;2023-04-03T04:03:24;30;26;
64229;PMS5003;50547;49.498;0.092;2023-04-03T04:05:53;32;28;
64229;PMS5003;50547;49.498;0.092;2023-04-03T04:08:22;31;27;
64229;PMS5003;50547;49.498;0.092;2023-04-03T04:10:52;31;27;
64229;PMS5003;50547;49.498;0.092;2023-04-03T04:13:21;31;27;
64229;PMS5003;50547;49.498;0.092;2023-04-03T04:15:50;31;27;
64229;PMS5003;50547;49.498;0.092;2023-04-03T04:18:19;31;27;
64229;PMS5003;50547;49.498;0.092;2023-04-03T04:20:48;31;27;
64229;PMS5003;50547;49.498;0.092;2023-04-03T04:23:18;33;28;
64229;PMS5003;50547;49.498;0.092;2023-04-03T04:25:47;33;28;
64229;PMS5003;50547;49.498;0.092;2023-04-03T04:28:17;34;29;
64229;PMS5003;50547;49.498;0.092;2023-04-03T04:30:47;31;27;
64229;PMS5003;50547;49.498;0.092;2023-04-03T04:33:16;33;28;
64229;PMS5003;50547;49.498;0.092;2023-04-03T04:35:46;33;28;
64229;PMS5003;50547;49.498;0.092;2023-04-03T04:38:16;32;28;
64229;PMS5003;50547;49.498;0.092;2023-04-03T04:40:46;31;27;
64229;PMS5003;50547;49.498;0.092;2023-04-03T04:43:16;33;28;
64229;PMS5003;50547;49.498;0.092;2023-04-03T04:45:45;34;29;
64229;PMS5003;50547;49.498;0.092;2023-04-03T04:48:14;30;26;
64229;PMS5003;50547;49.498;0.092;2023-04-03T04:50:43;31;27;
64229;PMS5003;50547;49.498;0.092;2023-04-03T04:53:12;31;27;
64229;PMS5003;50547;49.498;0.092;2023-04-03T04:55:41;30;26;
64229;PMS5003;50547;49.498;0.092;2023-04-03T04:58:11;30;26;
64229;PMS5003;50547;49.498;0.092;2023-04-03T05:00:40;31;27;
64229;PMS5003;50547;49.498;0.092;2023-04-03T05:03:10;30;26;
64229;PMS5003;50547;49.498;0.092;2023-04-03T05:05:39;29;25;
64229;PMS5003;50547;49.498;0.092;2023-04-03T05:08:08;30;26;
64229;PMS5003;50547;49.498;0.092;2023-04-03T05:10:37;29;25;
64229;PMS5003;50547;49.498;0.092;2023-04-03T05:13:06;27;23;
64229;PMS5003;50547;49.498;0.092;2023-04-03T05:15:35;25;22;
64229;PMS5003;50547;49.498;0.092;2023-04-03T05:18:05;26;23;
64229;PMS5003;50547;49.498;0.092;2023-04-03T05:20:34;27;23;
64229;PMS5003;50547;49.498;0.092;2023-04-03T05:23:03;26;23;
64229;PMS5003;50547;49.498;0.092;2023-04-03T05:25:33;26;23;
64229;PMS5003;50547;49.498;0.092;2023-04-03T05:28:02;27;23;
64229;PMS5003;50547;49.498;0.092;2023-04-03T05:30:31;27;23;
64229;PMS5003;50547;49.498;0.092;2023-04-03T05:33:01;26;23;
64229;PMS5003;50547;49.498;0.092;2023-04-03T05:35:30;27;23;
64229;PMS5003;50547;49.498;0.092;2023-04-03T05:38:00;27;23;
64229;PMS5003;50547;49.498;0.092;2023-04-03T05:40:29;27;23;
64229;PMS5003;50547;49.498;0.092;2023-04-03T05:42:58;27;23;
64229;PMS5003;50547;49.498;0.092;2023-04-03T05:45:24;28;24;
64229;PMS5003;50547;49.498;0.092;2023-04-03T05:47:53;29;25;
64229;PMS5003;50547;49.498;0.092;2023-04-03T05:50:22;29;25;
64229;PMS5003;50547;49.498;0.092;2023-04-03T05:52:52;30;26;
64229;PMS5003;50547;49.498;0.092;2023-04-03T05:55:24;29;25;
64229;PMS5003;50547;49.498;0.092;2023-04-03T05:57:53;28;24;
64229;PMS5003;50547;49.498;0.092;2023-04-03T06:00:22;30;26;
64229;PMS5003;50547;49.498;0.092;2023-04-03T06:02:48;27;23;
64229;PMS5003;50547;49.498;0.092;2023-04-03T06:05:17;28;24;
64229;PMS5003;50547;49.498;0.092;2023-04-03T06:07:46;27;23;
64229;PMS5003;50547;49.498;0.092;2023-04-03T06:10:12;28;24;
64229;PMS5003;50547;49.498;0.092;2023-04-03T06:12:41;27;23;
64229;PMS5003;50547;49.498;0.092;2023-04-03T06:15:11;28;24;
64229;PMS5003;50547;49.498;0.092;2023-04-03T06:17:40;27;23;
64229;PMS5003;50547;49.498;0.092;2023-04-03T06:20:10;25;22;
64229;PMS5003;50547;49.498;0.092;2023-04-03T06:22:40;26;23;
64229;PMS5003;50547;49.498;0.092;2023-04-03T06:25:10;25;22;
64229;PMS5003;50547;49.498;0.092;2023-04-03T06:27:39;26;23;
64229;PMS5003;50547;49.498;0.092;2023-04-03T06:30:08;25;22;
64229;PMS5003;50547;49.498;0.092;2023-04-03T06:32:43;26;23;
64229;PMS5003;50547;49.498;0.092;2023-04-03T06:35:12;26;23;
64229;PMS5003;50547;49.498;0.092;2023-04-03T06:37:41;25;22;
64229;PMS5003;50547;49.498;0.092;2023-04-03T06:40:12;24;21;
64229;PMS5003;50547;49.498;0.092;2023-04-03T06:42:46;25;22;
64229;PMS5003;50547;49.498;0.092;2023-04-03T06:45:14;25;22;
64229;PMS5003;50547;49.498;0.092;2023-04-03T06:47:44;24;21;
64229;PMS5003;50547;49.498;0.092;2023-04-03T06:50:13;23;20;
64229;PMS5003;50547;49.498;0.092;2023-04-03T06:52:42;24;21;
64229;PMS5003;50547;49.498;0.092;2023-04-03T06:55:12;25;22;
64229;PMS5003;50547;49.498;0.092;2023-04-03T06:57:41;23;20;
64229;PMS5003;50547;49.498;0.092;2023-04-03T07:00:11;24;21;
64229;PMS5003;50547;49.498;0.092;2023-04-03T07:02:41;23;20;
64229;PMS5003;50547;49.498;0.092;2023-04-03T07:05:11;22;19;
64229;PMS5003;50547;49.498;0.092;2023-04-03T07:07:40;23;20;
64229;PMS5003;50547;49.498;0.092;2023-04-03T07:10:09;23;20;
64229;PMS5003;50547;49.498;0.092;2023-04-03T07:12:39;22;19;
64229;PMS5003;50547;49.498;0.092;2023-04-03T07:15:08;22;19;
64229;PMS5003;50547;49.498;0.092;2023-04-03T07:17:38;20;17;
64229;PMS5003;50547;49.498;0.092;2023-04-03T07:20:05;20;17;
64229;PMS5003;50547;49.498;0.092;2023-04-03T07:22:35;19;17;
64229;PMS5003;50547;49.498;0.092;2023-04-03T07:25:05;20;17;
64229;PMS5003;50547;49.498;0.092;2023-04-03T07:27:34;20;17;
64229;PMS5003;50547;49.498;0.092;2023-04-03T07:30:00;20;17;
64229;PMS5003;50547;49.498;0.092;2023-04-03T07:32:29;18;16;
64229;PMS5003;50547;49.498;0.092;2023-04-03T07:34:58;21;18;
64229;PMS5003;50547;49.498;0.092;2023-04-03T07:37:24;20;17;
64229;PMS5003;50547;49.498;0.092;2023-04-03T07:39:53;21;18;
64229;PMS5003;50547;49.498;0.092;2023-04-03T07:42:23;20;17;
64229;PMS5003;50547;49.498;0.092;2023-04-03T07:44:52;20;17;
64229;PMS5003;50547;49.498;0.092;2023-04-03T07:47:21;20;17;
64229;PMS5003;50547;49.498;0.092;2023-04-03T07:49:56;20;17;
64229;PMS5003;50547;49.498;0.092;2023-04-03T07:52:30;20;17;
64229;PMS5003;50547;49.498;0.092;2023-04-03T07:54:59;20;17;
64229;PMS5003;50547;49.498;0.092;2023-04-03T07:57:29;19;17;
64229;PMS5003;50547;49.498;0.092;2023-04-03T07:59:58;18;16;
64229;PMS5003;50547;49.498;0.092;2023-04-03T08:02:27;18;16;
64229;PMS5003;50547;49.498;0.092;2023-04-03T08:04:56;18;16;
64229;PMS5003;50547;49.498;0.092;2023-04-03T08:07:25;15;14;
64229;PMS5003;50547;49.498;0.092;2023-04-03T08:09:55;17;15;
64229;PMS5003;50547;49.498;0.092;2023-04-03T08:12:24;18;16;
64229;PMS5003;50547;49.498;0.092;2023-04-03T08:14:53;15;14;
64229;PMS5003;50547;49.498;0.092;2023-04-03T08:17:22;15;14;
64229;PMS5003;50547;49.498;0.092;2023-04-03T08:19:51;14;14;
64229;PMS5003;50547;49.498;0.092;2023-04-03T08:22:21;14;14;
64229;PMS5003;50547;49.498;0.092;2023-04-03T08:24:50;14;14;
64229;PMS5003;50547;49.498;0.092;2023-04-03T08:27:19;14;14;
64229;PMS5003;50547;49.498;0.092;2023-04-03T08:29:48;14;14;
64229;PMS5003;50547;49.498;0.092;2023-04-03T08:32:22;11;11;
64229;PMS5003;50547;49.498;0.092;2023-04-03T08:34:51;13;13;
64229;PMS5003;50547;49.498;0.092;2023-04-03T08:37:17;14;14;
64229;PMS5003;50547;49.498;0.092;2023-04-03T08:39:46;14;14;
64229;PMS5003;50547;49.498;0.092;2023-04-03T08:42:16;14;14;
64229;PMS5003;50547;49.498;0.092;2023-04-03T08:45:01;14;14;
64229;PMS5003;50547;49.498;0.092;2023-04-03T08:47:37;14;14;
64229;PMS5003;50547;49.498;0.092;2023-04-03T08:50:11;14;14;
64229;PMS5003;50547;49.498;0.092;2023-04-03T08:52:44;14;14;
64229;PMS5003;50547;49.498;0.092;2023-04-03T08:55:22;13;13;
64229;PMS5003;50547;49.498;0.092;2023-04-03T08:57:57;14;14;
64229;PMS5003;50547;49.498;0.092;2023-04-03T09:00:30;15;14;
64229;PMS5003;50547;49.498;0.092;2023-04-03T09:03:10;15;14;
64229;PMS5003;50547;49.498;0.092;2023-04-03T09:05:42;14;14;
64229;PMS5003;50547;49.498;0.092;2023-04-03T09:08:21;13;13;
64229;PMS5003;50547;49.498;0.092;2023-04-03T09:11:00;13;13;
64229;PMS5003;50547;49.498;0.092;2023-04-03T09:13:43;14;14;
64229;PMS5003;50547;49.498;0.092;2023-04-03T09:16:20;14;14;
64229;PMS5003;50547;49.498;0.092;2023-04-03T09:18:57;14;14;
64229;PMS5003;50547;49.498;0.092;2023-04-03T09:21:36;14;14;
64229;PMS5003;50547;49.498;0.092;2023-04-03T09:24:07;15;14;
64229;PMS5003;50547;49.498;0.092;2023-04-03T09:26:40;18;16;
64229;PMS5003;50547;49.498;0.092;2023-04-03T09:29:15;14;14;
64229;PMS5003;50547;49.498;0.092;2023-04-03T09:31:47;18;16;
64229;PMS5003;50547;49.498;0.092;2023-04-03T09:34:20;18;16;
64229;PMS5003;50547;49.498;0.092;2023-04-03T09:36:51;18;16;
64229;PMS5003;50547;49.498;0.092;2023-04-03T09:39:23;18;16;
64229;PMS5003;50547;49.498;0.092;2023-04-03T09:41:55;18;16;
64229;PMS5003;50547;49.498;0.092;2023-04-03T09:44:28;19;17;
64229;PMS5003;50547;49.498;0.092;2023-04-03T09:47:17;18;16;
64229;PMS5003;50547;49.498;0.092;2023-04-03T09:49:48;19;17;
64229;PMS5003;50547;49.498;0.092;2023-04-03T09:52:39;20;17;
64229;PMS5003;50547;49.498;0.092;2023-04-03T09:55:13;20;17;
64229;PMS5003;50547;49.498;0.092;2023-04-03T09:57:44;20;17;
64229;PMS5003;50547;49.498;0.092;2023-04-03T10:00:19;18;16;
64229;PMS5003;50547;49.498;0.092;2023-04-03T10:02:51;20;17;
64229;PMS5003;50547;49.498;0.092;2023-04-03T10:05:27;20;17;
64229;PMS5003;50547;49.498;0.092;2023-04-03T10:08:08;20;17;
64229;PMS5003;50547;49.498;0.092;2023-04-03T10:10:39;22;19;
64229;PMS5003;50547;49.498;0.092;2023-04-03T10:13:10;21;18;
64229;PMS5003;50547;49.498;0.092;2023-04-03T10:15:42;21;18;
64229;PMS5003;50547;49.498;0.092;2023-04-03T10:18:19;20;17;
64229;PMS5003;50547;49.498;0.092;2023-04-03T10:20:59;20;17;
64229;PMS5003;50547;49.498;0.092;2023-04-03T10:23:36;19;17;
64229;PMS5003;50547;49.498;0.092;2023-04-03T10:26:12;20;17;
64229;PMS5003;50547;49.498;0.092;2023-04-03T10:28:55;20;17;
64229;PMS5003;50547;49.498;0.092;2023-04-03T10:31:29;21;18;
64229;PMS5003;50547;49.498;0.092;2023-04-03T10:34:06;22;19;
64229;PMS5003;50547;49.498;0.092;2023-04-03T10:36:42;22;19;
64229;PMS5003;50547;49.498;0.092;2023-04-03T10:39:17;23;20;
64229;PMS5003;50547;49.498;0.092;2023-04-03T10:41:57;22;19;
64229;PMS5003;50547;49.498;0.092;2023-04-03T10:44:36;22;19;
64229;PMS5003;50547;49.498;0.092;2023-04-03T10:47:20;19;17;
64229;PMS5003;50547;49.498;0.092;2023-04-03T10:49:55;20;17;
64229;PMS5003;50547;49.498;0.092;2023-04-03T10:52:30;20;17;
64229;PMS5003;50547;49.498;0.092;2023-04-03T10:55:09;20;17;
64229;PMS5003;50547;49.498;0.092;2023-04-03T10:57:52;20;17;
64229;PMS5003;50547;49.498;0.092;2023-04-03T11:00:48;20;17;
64229;PMS5003;50547;49.498;0.092;2023-04-03T11:03:23;20;17;
64229;PMS5003;50547;49.498;0.092;2023-04-03T11:05:57;21;18;
64229;PMS5003;50547;49.498;0.092;2023-04-03T11:08:32;20;17;
64229;PMS5003;50547;49.498;0.092;2023-04-03T11:11:08;20;17;
64229;PMS5003;50547;49.498;0.092;2023-04-03T11:13:43;20;17;
64229;PMS5003;50547;49.498;0.092;2023-04-03T11:16:19;20;17;
64229;PMS5003;50547;49.498;0.092;2023-04-03T11:18:52;21;18;
64229;PMS5003;50547;49.498;0.092;2023-04-03T11:21:27;19;17;
64229;PMS5003;50547;49.498;0.092;2023-04-03T11:24:00;21;18;
64229;PMS5003;50547;49.498;0.092;2023-04-03T11:26:35;21;18;
64229;PMS5003;50547;49.498;0.092;2023-04-03T11:29:08;20;17;
64229;PMS5003;50547;49.498;0.092;2023-04-03T11:31:46;20;17;
64229;PMS5003;50547;49.498;0.092;2023-04-03T11:34:33;20;17;
64229;PMS5003;50547;49.498;0.092;2023-04-03T11:37:05;20;17;
64229;PMS5003;50547;49.498;0.092;2023-04-03T11:39:47;22;19;
64229;PMS5003;50547;49.498;0.092;2023-04-03T11:42:24;22;19;
64229;PMS5003;50547;49.498;0.092;2023-04-03T11:46:04;21;18;
64229;PMS5003;50547;49.498;0.092;2023-04-03T11:48:44;20;17;
64229;PMS5003;50547;49.498;0.092;2023-04-03T11:51:48;20;17;
64229;PMS5003;50547;49.498;0.092;2023-04-03T11:54:49;21;18;
64229;PMS5003;50547;49.498;0.092;2023-04-03T11:58:02;22;19;
64229;PMS5003;50547;49.498;0.092;2023-04-03T12:01:06;20;17;
64229;PMS5003;50547;49.498;0.092;2023-04-03T12:09:29;22;19;
64229;PMS5003;50547;49.498;0.092;2023-04-03T12:12:24;22;19;
64229;PMS5003;50547;49.498;0.092;2023-04-03T12:16:03;22;19;
64229;PMS5003;50547;49.498;0.092;2023-04-03T12:18:48;21;18;
64229;PMS5003;50547;49.498;0.092;2023-04-03T12:22:04;22;19;
64229;PMS5003;50547;49.498;0.092;2023-04-03T12:24:38;22;19;
64229;PMS5003;50547;49.498;0.092;2023-04-03T12:27:15;22;19;
64229;PMS5003;50547;49.498;0.092;2023-04-03T12:29:58;23;20;
64229;PMS5003;50547;49.498;0.092;2023-04-03T12:32:36;25;22;
64229;PMS5003;50547;49.498;0.092;2023-04-03T12:35:17;25;22;
64229;PMS5003;50547;49.498;0.092;2023-04-03T12:38:00;24;21;
64229;PMS5003;50547;49.498;0.092;2023-04-03T12:41:07;23;20;
64229;PMS5003;50547;49.498;0.092;2023-04-03T12:43:50;22;19;
64229;PMS5003;50547;49.498;0.092;2023-04-03T12:46:34;21;18;
64229;PMS5003;50547;49.498;0.092;2023-04-03T12:49:13;22;19;
64229;PMS5003;50547;49.498;0.092;2023-04-03T12:51:55;20;17;
64229;PMS5003;50547;49.498;0.092;2023-04-03T12:54:26;20;17;
64229;PMS5003;50547;49.498;0.092;2023-04-03T12:57:17;20;17;
64229;PMS5003;50547;49.498;0.092;2023-04-03T12:59:47;20;17;
64229;PMS5003;50547;49.498;0.092;2023-04-03T13:02:20;19;17;
64229;PMS5003;50547;49.498;0.092;2023-04-03T13:04:52;21;18;
64229;PMS5003;50547;49.498;0.092;2023-04-03T13:07:24;21;18;
64229;PMS5003;50547;49.498;0.092;2023-04-03T13:09:59;20;17;
64229;PMS5003;50547;49.498;0.092;2023-04-03T13:12:30;20;17;
64229;PMS5003;50547;49.498;0.092;2023-04-03T13:15:00;20;17;
64229;PMS5003;50547;49.498;0.092;2023-04-03T13:17:31;20;17;
64229;PMS5003;50547;49.498;0.092;2023-04-03T13:20:18;19;17;
64229;PMS5003;50547;49.498;0.092;2023-04-03T13:22:52;20;17;
64229;PMS5003;50547;49.498;0.092;2023-04-03T13:25:26;18;16;
64229;PMS5003;50547;49.498;0.092;2023-04-03T13:27:58;17;15;
64229;PMS5003;50547;49.498;0.092;2023-04-03T13:30:30;15;14;
64229;PMS5003;50547;49.498;0.092;2023-04-03T13:33:02;15;14;
64229;PMS5003;50547;49.498;0.092;2023-04-03T13:35:35;15;14;
64229;PMS5003;50547;49.498;0.092;2023-04-03T13:38:07;14;14;
64229;PMS5003;50547;49.498;0.092;2023-04-03T13:40:52;14;14;
64229;PMS5003;50547;49.498;0.092;2023-04-03T13:43:24;14;14;
64229;PMS5003;50547;49.498;0.092;2023-04-03T13:45:57;14;14;
64229;PMS5003;50547;49.498;0.092;2023-04-03T13:48:34;14;14;
64229;PMS5003;50547;49.498;0.092;2023-04-03T13:51:05;13;13;
64229;PMS5003;50547;49.498;0.092;2023-04-03T13:53:46;14;14;
64229;PMS5003;50547;49.498;0.092;2023-04-03T13:56:18;13;13;
64229;PMS5003;50547;49.498;0.092;2023-04-03T13:58:54;13;13;
64229;PMS5003;50547;49.498;0.092;2023-04-03T14:01:32;13;13;
64229;PMS5003;50547;49.498;0.092;2023-04-03T14:04:10;13;13;
64229;PMS5003;50547;49.498;0.092;2023-04-03T14:06:43;11;11;
64229;PMS5003;50547;49.498;0.092;2023-04-03T14:09:12;11;11;
64229;PMS5003;50547;49.498;0.092;2023-04-03T14:11:42;11;11;
64229;PMS5003;50547;49.498;0.092;2023-04-03T14:14:13;11;11;
64229;PMS5003;50547;49.498;0.092;2023-04-03T14:16:46;55;48;
64229;PMS5003;50547;49.498;0.092;2023-04-03T14:19:25;19;17;
64229;PMS5003;50547;49.498;0.092;2023-04-03T14:21:56;22;19;
64229;PMS5003;50547;49.498;0.092;2023-04-03T14:24:26;11;11;
64229;PMS5003;50547;49.498;0.092;2023-04-03T14:26:55;11;11;
64229;PMS5003;50547;49.498;0.092;2023-04-03T14:29:23;10;10;
64229;PMS5003;50547;49.498;0.092;2023-04-03T14:31:53;10;10;
64229;PMS5003;50547;49.498;0.092;2023-04-03T14:34:22;10;10;
64229;PMS5003;50547;49.498;0.092;2023-04-03T14:36:51;10;10;
64229;PMS5003;50547;49.498;0.092;2023-04-03T14:39:20;10;10;
64229;PMS5003;50547;49.498;0.092;2023-04-03T14:41:50;10;10;
64229;PMS5003;50547;49.498;0.092;2023-04-03T14:44:19;10;10;
64229;PMS5003;50547;49.498;0.092;2023-04-03T14:46:48;10;10;
64229;PMS5003;50547;49.498;0.092;2023-04-03T14:49:19;11;11;
64229;PMS5003;50547;49.498;0.092;2023-04-03T14:51:50;10;10;
64229;PMS5003;50547;49.498;0.092;2023-04-03T14:54:21;10;10;
64229;PMS5003;50547;49.498;0.092;2023-04-03T14:56:52;9;9;
64229;PMS5003;50547;49.498;0.092;2023-04-03T14:59:22;10;10;
64229;PMS5003;50547;49.498;0.092;2023-04-03T15:01:52;10;10;
64229;PMS5003;50547;49.498;0.092;2023-04-03T15:04:21;10;10;
64229;PMS5003;50547;49.498;0.092;2023-04-03T15:06:49;10;10;
64229;PMS5003;50547;49.498;0.092;2023-04-03T15:09:21;10;10;
64229;PMS5003;50547;49.498;0.092;2023-04-03T15:11:52;10;10;
64229;PMS5003;50547;49.498;0.092;2023-04-03T15:14:22;9;9;
64229;PMS5003;50547;49.498;0.092;2023-04-03T15:16:52;9;9;
64229;PMS5003;50547;49.498;0.092;2023-04-03T15:19:29;8;8;
64229;PMS5003;50547;49.498;0.092;2023-04-03T15:21:58;8;8;
64229;PMS5003;50547;49.498;0.092;2023-04-03T15:24:38;9;9;
64229;PMS5003;50547;49.498;0.092;2023-04-03T15:27:07;8;8;
64229;PMS5003;50547;49.498;0.092;2023-04-03T15:29:38;9;9;
64229;PMS5003;50547;49.498;0.092;2023-04-03T15:32:08;8;8;
64229;PMS5003;50547;49.498;0.092;2023-04-03T15:34:38;8;8;
64229;PMS5003;50547;49.498;0.092;2023-04-03T15:37:08;9;9;
64229;PMS5003;50547;49.498;0.092;2023-04-03T15:39:37;8;8;
64229;PMS5003;50547;49.498;0.092;2023-04-03T15:42:06;8;8;
64229;PMS5003;50547;49.498;0.092;2023-04-03T15:44:34;9;9;
64229;PMS5003;50547;49.498;0.092;2023-04-03T15:47:03;9;9;
64229;PMS5003;50547;49.498;0.092;2023-04-03T15:49:33;8;8;
64229;PMS5003;50547;49.498;0.092;2023-04-03T15:52:03;8;8;
64229;PMS5003;50547;49.498;0.092;2023-04-03T15:54:33;9;9;
64229;PMS5003;50547;49.498;0.092;2023-04-03T15:56:59;8;8;
64229;PMS5003;50547;49.498;0.092;2023-04-03T15:59:28;8;8;
64229;PMS5003;50547;49.498;0.092;2023-04-03T16:01:58;8;8;
64229;PMS5003;50547;49.498;0.092;2023-04-03T16:04:30;10;10;
64229;PMS5003;50547;49.498;0.092;2023-04-03T16:07:01;8;8;
64229;PMS5003;50547;49.498;0.092;2023-04-03T16:09:31;8;8;
64229;PMS5003;50547;49.498;0.092;2023-04-03T16:12:01;9;9;
64229;PMS5003;50547;49.498;0.092;2023-04-03T16:14:30;8;8;
64229;PMS5003;50547;49.498;0.092;2023-04-03T16:17:00;8;8;
64229;PMS5003;50547;49.498;0.092;2023-04-03T16:19:29;8;8;
64229;PMS5003;50547;49.498;0.092;2023-04-03T16:21:59;8;8;
64229;PMS5003;50547;49.498;0.092;2023-04-03T16:24:28;10;10;
64229;PMS5003;50547;49.498;0.092;2023-04-03T16:26:56;8;8;
64229;PMS5003;50547;49.498;0.092;2023-04-03T16:29:26;9;9;
64229;PMS5003;50547;49.498;0.092;2023-04-03T16:31:52;10;10;
64229;PMS5003;50547;49.498;0.092;2023-04-03T16:34:22;10;10;
64229;PMS5003;50547;49.498;0.092;2023-04-03T16:36:51;10;10;
64229;PMS5003;50547;49.498;0.092;2023-04-03T16:39:20;10;10;
64229;PMS5003;50547;49.498;0.092;2023-04-03T16:41:50;10;10;
64229;PMS5003;50547;49.498;0.092;2023-04-03T16:44:19;9;9;
64229;PMS5003;50547;49.498;0.092;2023-04-03T16:46:48;9;9;
64229;PMS5003;50547;49.498;0.092;2023-04-03T16:49:17;9;9;
64229;PMS5003;50547;49.498;0.092;2023-04-03T16:51:47;10;10;
64229;PMS5003;50547;49.498;0.092;2023-04-03T16:54:17;8;8;
64229;PMS5003;50547;49.498;0.092;2023-04-03T16:56:46;8;8;
64229;PMS5003;50547;49.498;0.092;2023-04-03T16:59:15;8;8;
64229;PMS5003;50547;49.498;0.092;2023-04-03T17:01:45;10;10;